Time;durP1;ratioP1;P1;durP2;ratioP2;P2;SDS_P1;SDS_P2;PMS_P1;PMS_P2;Temp;Humidity;BMP_temperature;BMP_pressure;BME280_temperature;BME280_humidity;BME280_pressure;Samples;Min_cycle;Max_cycle;Signal;HPM_P1;HPM_P2
2024/04/23 00:01:34;;;;;;;3.03;1.77;;;22.00;45.00;;;;;;5428745;26;19995;-61
2024/04/23 00:04:00;;;;;;;3.80;1.70;;;22.00;44.50;;;;;;5427746;26;20462;-61
2024/04/23 00:06:26;;;;;;;3.13;1.70;;;22.00;44.50;;;;;;5428159;26;20011;-61
2024/04/23 00:08:51;;;;;;;3.40;1.58;;;22.00;44.50;;;;;;5428931;26;20412;-61
2024/04/23 00:11:17;;;;;;;5.15;2.20;;;21.90;44.50;;;;;;5427127;26;19999;-61
2024/04/23 00:13:42;;;;;;;2.97;1.67;;;21.90;44.50;;;;;;5424632;26;19991;-61
2024/04/23 00:16:08;;;;;;;2.55;1.60;;;21.90;44.50;;;;;;5428576;26;20099;-61
2024/04/23 00:18:34;;;;;;;2.30;1.33;;;21.90;44.50;;;;;;5429913;26;20010;-61
2024/04/23 00:20:59;;;;;;;3.42;1.85;;;21.90;44.50;;;;;;5425138;26;20006;-61
2024/04/23 00:23:25;;;;;;;2.63;1.50;;;21.90;44.50;;;;;;5433344;26;20072;-61
2024/04/23 00:25:51;;;;;;;3.60;1.60;;;21.90;44.50;;;;;;5428194;26;19994;-62
2024/04/23 00:28:17;;;;;;;3.38;1.63;;;21.90;44.50;;;;;;5430265;26;20069;-62
2024/04/23 00:30:42;;;;;;;2.92;1.42;;;21.80;44.50;;;;;;5426206;26;20005;-62
2024/04/23 00:33:08;;;;;;;3.83;1.60;;;21.80;44.50;;;;;;5433904;26;19994;-61
2024/04/23 00:35:34;;;;;;;2.67;1.35;;;21.80;44.50;;;;;;5429607;26;20010;-61
2024/04/23 00:38:00;;;;;;;2.78;1.50;;;21.80;44.50;;;;;;5427232;26;20041;-62
2024/04/23 00:40:29;;;;;;;3.13;1.42;;;21.80;44.50;;;;;;5431082;26;20005;-61
2024/04/23 00:42:56;;;;;;;2.50;1.40;;;21.80;44.50;;;;;;5429919;26;20450;-61
2024/04/23 00:45:24;;;;;;;2.67;1.55;;;21.80;44.50;;;;;;5429058;26;20529;-62
2024/04/23 00:47:50;;;;;;;2.35;1.40;;;21.80;44.60;;;;;;5432595;26;20447;-62
2024/04/23 00:50:17;;;;;;;2.63;1.38;;;21.80;44.60;;;;;;5433083;26;19998;-62
2024/04/23 00:52:43;;;;;;;2.67;1.42;;;21.80;44.60;;;;;;5432386;26;20072;-61
2024/04/23 00:55:09;;;;;;;3.42;1.50;;;21.80;44.60;;;;;;5428508;26;20094;-61
2024/04/23 00:57:35;;;;;;;2.85;1.50;;;21.80;44.60;;;;;;5429490;26;19995;-61
2024/04/23 01:00:02;;;;;;;3.40;1.63;;;21.70;44.50;;;;;;5426424;26;20035;-61
2024/04/23 01:02:28;;;;;;;3.00;1.50;;;21.70;44.50;;;;;;5431747;26;20005;-61
2024/04/23 01:04:54;;;;;;;2.60;1.40;;;21.70;44.50;;;;;;5429252;26;20009;-61
2024/04/23 01:07:20;;;;;;;3.38;1.60;;;21.70;44.50;;;;;;5430763;26;20359;-61
2024/04/23 01:09:45;;;;;;;3.00;1.20;;;21.70;44.60;;;;;;5428650;26;20101;-62
2024/04/23 01:12:11;;;;;;;2.30;1.17;;;21.70;44.60;;;;;;5424452;26;20002;-61
2024/04/23 01:14:40;;;;;;;2.55;1.30;;;21.70;44.60;;;;;;5425317;26;19991;-61
2024/04/23 01:17:07;;;;;;;2.28;1.30;;;21.70;44.60;;;;;;5429008;26;19995;-61
2024/04/23 01:19:57;;;;;;;3.85;1.80;;;21.70;44.60;;;;;;5431526;26;20415;-61
2024/04/23 01:22:39;;;;;;;2.35;1.35;;;21.70;44.60;;;;;;5427172;26;20076;-61
2024/04/23 01:25:09;;;;;;;2.58;1.30;;;21.70;44.60;;;;;;5426052;26;20678;-61
2024/04/23 01:27:36;;;;;;;2.03;1.23;;;21.60;44.60;;;;;;5431176;26;20223;-61
2024/04/23 01:30:04;;;;;;;2.33;1.40;;;21.60;44.60;;;;;;5427971;26;20325;-61
2024/04/23 01:32:34;;;;;;;3.75;1.63;;;21.60;44.60;;;;;;5427357;26;20471;-62
2024/04/23 01:35:00;;;;;;;3.47;1.50;;;21.60;44.60;;;;;;5426530;26;19994;-61
2024/04/23 01:37:28;;;;;;;2.72;1.52;;;21.60;44.60;;;;;;5441553;26;20066;-61
2024/04/23 01:39:54;;;;;;;2.13;1.13;;;21.60;44.60;;;;;;5428690;26;19999;-61
2024/04/23 01:42:22;;;;;;;2.13;1.38;;;21.60;44.60;;;;;;5424923;26;20003;-64
2024/04/23 01:44:48;;;;;;;2.63;1.20;;;21.60;44.70;;;;;;5422695;26;19991;-63
2024/04/23 01:47:14;;;;;;;2.65;1.35;;;21.60;44.70;;;;;;5430422;26;20292;-64
2024/04/23 01:49:40;;;;;;;2.10;1.30;;;21.60;44.60;;;;;;5432666;26;19995;-63
2024/04/23 01:52:07;;;;;;;2.17;1.15;;;21.60;44.70;;;;;;5428657;26;20014;-63
2024/04/23 01:54:32;;;;;;;2.38;1.30;;;21.60;44.70;;;;;;5441877;26;20011;-64
2024/04/23 01:57:02;;;;;;;2.65;1.60;;;21.50;44.60;;;;;;5428511;26;20043;-63
2024/04/23 01:59:28;;;;;;;2.97;1.30;;;21.50;44.60;;;;;;5423068;26;20003;-63
2024/04/23 02:01:56;;;;;;;2.13;1.30;;;21.50;44.60;;;;;;5428219;26;20066;-63
2024/04/23 02:04:23;;;;;;;2.70;1.40;;;21.50;45.20;;;;;;5428457;26;20019;-64
2024/04/23 02:06:50;;;;;;;2.65;1.30;;;21.50;44.60;;;;;;5429003;26;20113;-63
2024/04/23 02:09:16;;;;;;;1.77;1.23;;;21.50;44.70;;;;;;5435311;26;19995;-63
2024/04/23 02:11:42;;;;;;;2.13;1.20;;;21.50;44.70;;;;;;5428056;26;20006;-64
2024/04/23 02:14:08;;;;;;;2.33;1.38;;;21.50;44.70;;;;;;5430539;26;20023;-63
2024/04/23 02:16:33;;;;;;;2.63;1.30;;;21.50;44.70;;;;;;5432286;26;20107;-63
2024/04/23 02:18:59;;;;;;;2.03;1.23;;;21.50;44.70;;;;;;5432527;26;20013;-63
2024/04/23 02:21:25;;;;;;;2.03;1.23;;;21.50;44.70;;;;;;5433043;26;20011;-64
2024/04/23 02:23:50;;;;;;;2.30;1.30;;;21.50;44.70;;;;;;5429821;26;20333;-63
2024/04/23 02:26:16;;;;;;;2.25;1.30;;;21.50;44.70;;;;;;5427150;26;19999;-63
2024/04/23 02:28:41;;;;;;;2.85;1.30;;;21.40;44.70;;;;;;5430511;26;20075;-63
2024/04/23 02:31:07;;;;;;;1.90;1.20;;;21.40;44.70;;;;;;5429277;26;20015;-63
2024/04/23 02:33:32;;;;;;;2.83;1.40;;;21.40;44.70;;;;;;5429482;26;20015;-64
2024/04/23 02:35:58;;;;;;;2.50;1.30;;;21.40;44.70;;;;;;5431062;26;20077;-63
2024/04/23 02:38:24;;;;;;;2.60;1.40;;;21.40;44.70;;;;;;5429595;26;20241;-63
2024/04/23 02:40:49;;;;;;;2.60;1.30;;;21.40;44.70;;;;;;5432233;26;20006;-63
2024/04/23 02:43:15;;;;;;;2.03;1.20;;;21.40;44.70;;;;;;5432100;26;20010;-61
2024/04/23 02:45:41;;;;;;;1.88;1.17;;;21.40;44.70;;;;;;5427016;26;20023;-61
2024/04/23 02:48:07;;;;;;;2.65;1.13;;;21.40;44.70;;;;;;5427570;26;19999;-60
2024/04/23 02:50:33;;;;;;;2.58;1.30;;;21.40;44.70;;;;;;5433593;26;20010;-61
2024/04/23 02:52:58;;;;;;;2.90;1.30;;;21.40;44.70;;;;;;5433732;26;19999;-62
2024/04/23 02:55:24;;;;;;;2.20;1.40;;;21.40;44.70;;;;;;5424563;26;20384;-62
2024/04/23 02:57:50;;;;;;;2.45;1.23;;;21.40;44.70;;;;;;5433192;26;20051;-62
2024/04/23 03:00:16;;;;;;;2.65;1.10;;;21.40;44.70;;;;;;5427576;26;20468;-61
2024/04/23 03:02:42;;;;;;;2.50;1.20;;;21.40;44.70;;;;;;5432414;26;20111;-61
2024/04/23 03:05:07;;;;;;;1.98;1.17;;;21.30;44.70;;;;;;5431121;26;19995;-61
2024/04/23 03:07:33;;;;;;;1.85;1.10;;;21.30;44.70;;;;;;5427574;26;20055;-61
2024/04/23 03:09:58;;;;;;;1.73;1.08;;;21.30;44.70;;;;;;5431162;26;19995;-62
2024/04/23 03:12:24;;;;;;;1.67;1.10;;;21.30;44.70;;;;;;5430134;26;20808;-61
2024/04/23 03:14:50;;;;;;;2.25;1.10;;;21.30;44.70;;;;;;5420623;26;19991;-62
2024/04/23 03:17:15;;;;;;;2.63;1.33;;;21.30;44.70;;;;;;5424395;26;19999;-61
2024/04/23 03:19:41;;;;;;;1.45;1.00;;;21.30;44.70;;;;;;5428326;26;20070;-62
2024/04/23 03:22:08;;;;;;;1.77;1.05;;;21.30;44.70;;;;;;5434885;26;20561;-61
2024/04/23 03:24:34;;;;;;;1.83;1.23;;;21.30;45.20;;;;;;5428058;26;20466;-60
2024/04/23 03:27:00;;;;;;;1.42;1.10;;;21.30;44.70;;;;;;5430013;26;19996;-61
2024/04/23 03:29:26;;;;;;;2.10;1.20;;;21.30;44.70;;;;;;5429788;26;20071;-61
2024/04/23 03:32:02;;;;;;;1.50;1.00;;;21.30;44.70;;;;;;5426576;26;19999;-63
2024/04/23 03:34:29;;;;;;;1.70;1.10;;;21.30;44.70;;;;;;5426616;26;20003;-63
2024/04/23 03:36:54;;;;;;;1.60;1.10;;;21.20;44.70;;;;;;5428567;26;20013;-63
2024/04/23 03:39:20;;;;;;;1.65;1.10;;;21.20;44.70;;;;;;5428137;26;20022;-63
2024/04/23 03:41:56;;;;;;;2.10;1.20;;;21.20;44.80;;;;;;5426153;26;20009;-63
2024/04/23 03:44:22;;;;;;;1.30;1.00;;;21.20;44.80;;;;;;5430318;26;20414;-63
2024/04/23 03:46:48;;;;;;;1.98;1.10;;;21.20;44.80;;;;;;5427464;26;20011;-63
2024/04/23 03:49:13;;;;;;;1.48;1.00;;;21.20;44.80;;;;;;5429341;26;19995;-63
2024/04/23 03:51:39;;;;;;;1.60;1.00;;;21.20;44.80;;;;;;5433506;26;20418;-63
2024/04/23 03:54:05;;;;;;;2.28;1.20;;;21.20;44.80;;;;;;5431220;26;20007;-63
2024/04/23 03:56:30;;;;;;;2.45;1.10;;;21.20;44.80;;;;;;5429408;26;20422;-63
2024/04/23 03:58:56;;;;;;;1.65;0.82;;;21.20;44.80;;;;;;5431128;26;20011;-63
2024/04/23 04:01:21;;;;;;;3.10;1.20;;;21.20;44.80;;;;;;5424361;26;19999;-63
2024/04/23 04:06:31;;;;;;;1.50;1.00;;;21.20;44.80;;;;;;5431456;26;20018;-61
2024/04/23 04:08:57;;;;;;;2.00;0.90;;;21.20;44.90;;;;;;5426042;26;20003;-61
2024/04/23 04:11:22;;;;;;;1.92;1.00;;;21.20;44.90;;;;;;5430143;26;19999;-61
2024/04/23 04:13:48;;;;;;;2.30;1.00;;;21.10;44.90;;;;;;5431597;26;20093;-61
2024/04/23 04:16:14;;;;;;;1.15;0.90;;;21.10;44.90;;;;;;5427248;26;20017;-60
2024/04/23 04:18:39;;;;;;;1.50;0.98;;;21.20;44.90;;;;;;5429634;26;20014;-60
2024/04/23 04:21:05;;;;;;;1.83;1.02;;;21.10;44.90;;;;;;5429342;26;20017;-61
2024/04/23 04:23:31;;;;;;;1.63;1.00;;;21.10;44.90;;;;;;5427263;26;20099;-61
2024/04/23 04:25:57;;;;;;;1.40;1.00;;;21.10;44.90;;;;;;5430975;26;20443;-61
2024/04/23 04:28:22;;;;;;;2.28;1.20;;;21.10;45.00;;;;;;5429124;26;20067;-60
2024/04/23 04:30:48;;;;;;;1.67;1.10;;;21.10;45.00;;;;;;5427766;26;20470;-61
2024/04/23 04:33:14;;;;;;;1.85;1.00;;;21.10;45.00;;;;;;5428750;26;20010;-61
2024/04/23 04:35:39;;;;;;;1.75;0.90;;;21.10;45.00;;;;;;5433522;26;20340;-61
2024/04/23 04:38:05;;;;;;;1.77;0.90;;;21.10;45.00;;;;;;5430529;26;19996;-61
2024/04/23 04:40:31;;;;;;;1.92;1.00;;;21.10;45.00;;;;;;5429535;26;19999;-61
2024/04/23 04:42:57;;;;;;;1.38;0.90;;;21.10;45.00;;;;;;5429236;26;20002;-61
2024/04/23 04:45:23;;;;;;;1.30;0.80;;;21.10;45.00;;;;;;5424202;26;20759;-61
2024/04/23 04:47:49;;;;;;;1.55;1.02;;;21.10;45.00;;;;;;5426917;26;19994;-60
2024/04/23 04:50:17;;;;;;;1.50;1.05;;;21.10;45.00;;;;;;5429418;26;19999;-61
2024/04/23 04:52:43;;;;;;;1.52;0.90;;;21.10;45.00;;;;;;5432498;26;19999;-60
2024/04/23 04:55:09;;;;;;;1.15;0.80;;;21.10;45.10;;;;;;5427762;26;20005;-61
2024/04/23 04:57:35;;;;;;;1.80;1.05;;;21.10;45.10;;;;;;5428916;26;20000;-61
2024/04/23 05:00:00;;;;;;;1.52;0.90;;;21.10;45.10;;;;;;5430354;26;20035;-60
2024/04/23 05:02:26;;;;;;;2.38;1.10;;;21.10;45.10;;;;;;5424423;26;20474;-63
2024/04/23 05:04:54;;;;;;;1.60;1.05;;;21.10;45.10;;;;;;5426295;26;20447;-63
2024/04/23 05:07:19;;;;;;;1.85;1.00;;;21.10;45.10;;;;;;5426826;26;20003;-63
2024/04/23 05:09:46;;;;;;;1.92;1.17;;;21.10;45.10;;;;;;5428492;26;19995;-62
2024/04/23 05:12:13;;;;;;;1.42;0.90;;;21.00;45.10;;;;;;5428541;26;19999;-61
2024/04/23 05:14:39;;;;;;;1.67;1.20;;;21.00;45.10;;;;;;5431366;26;20010;-61
2024/04/23 05:17:04;;;;;;;1.50;0.90;;;21.00;45.10;;;;;;5425698;26;20011;-61
2024/04/23 05:19:30;;;;;;;1.88;1.23;;;21.00;45.10;;;;;;5431319;26;20749;-61
2024/04/23 05:21:55;;;;;;;1.70;1.10;;;21.00;45.10;;;;;;5428608;26;20015;-61
2024/04/23 05:24:21;;;;;;;2.00;1.13;;;21.00;45.10;;;;;;5426933;26;20519;-60
2024/04/23 05:26:47;;;;;;;1.20;0.90;;;21.00;45.20;;;;;;5430285;26;20421;-61
2024/04/23 05:29:12;;;;;;;1.65;1.00;;;21.00;45.20;;;;;;5427691;26;20006;-62
2024/04/23 05:34:23;;;;;;;1.77;1.02;;;21.00;45.20;;;;;;5427562;26;20011;-61
2024/04/23 05:36:48;;;;;;;1.85;1.10;;;21.00;45.30;;;;;;5429169;26;20002;-60
2024/04/23 05:39:14;;;;;;;2.40;1.05;;;21.00;45.60;;;;;;5427185;26;20072;-62
2024/04/23 05:41:40;;;;;;;1.90;1.00;;;21.00;45.80;;;;;;5430597;26;20284;-61
2024/04/23 05:44:06;;;;;;;2.53;1.10;;;21.00;45.70;;;;;;5435586;26;20476;-60
2024/04/23 05:46:31;;;;;;;2.15;1.08;;;21.00;45.60;;;;;;5432347;26;19999;-61
2024/04/23 05:49:35;;;;;;;2.42;1.17;;;21.00;45.60;;;;;;5433695;26;20003;-61
2024/04/23 05:52:38;;;;;;;1.25;0.93;;;21.00;45.50;;;;;;5435534;26;20045;-62
2024/04/23 05:55:35;;;;;;;2.22;1.15;;;21.00;45.50;;;;;;5435591;26;20015;-63
2024/04/23 05:58:01;;;;;;;3.45;1.17;;;21.00;45.50;;;;;;5433358;26;19999;-62
2024/04/23 06:00:27;;;;;;;2.20;1.05;;;21.00;45.40;;;;;;5434168;26;20026;-62
2024/04/23 06:02:53;;;;;;;3.10;1.00;;;21.00;45.40;;;;;;5431477;26;20347;-62
2024/04/23 06:05:18;;;;;;;2.92;1.25;;;21.00;45.40;;;;;;5432182;26;20007;-62
2024/04/23 06:07:44;;;;;;;2.10;1.13;;;20.90;45.40;;;;;;5439186;26;19995;-62
2024/04/23 06:10:10;;;;;;;3.05;1.05;;;21.00;45.40;;;;;;5432330;26;20436;-63
2024/04/23 06:12:36;;;;;;;1.98;1.02;;;21.00;45.40;;;;;;5433167;26;19999;-60
2024/04/23 06:15:01;;;;;;;2.90;1.20;;;21.00;45.40;;;;;;5432795;26;20000;-61
2024/04/23 06:17:28;;;;;;;2.13;1.10;;;21.00;45.40;;;;;;5432292;26;20963;-60
2024/04/23 06:19:54;;;;;;;2.00;1.13;;;20.90;45.40;;;;;;5435227;26;20097;-60
2024/04/23 06:22:23;;;;;;;3.45;1.55;;;21.00;45.40;;;;;;5433941;26;19995;-63
2024/04/23 06:24:50;;;;;;;2.25;1.20;;;20.90;45.40;;;;;;5434836;26;20002;-63
2024/04/23 06:27:23;;;;;;;2.90;1.20;;;20.90;45.30;;;;;;5436328;26;20007;-62
2024/04/23 06:29:49;;;;;;;3.28;1.40;;;20.90;45.40;;;;;;5436602;26;20080;-62
2024/04/23 06:32:16;;;;;;;3.22;1.10;;;20.90;45.40;;;;;;5431561;26;20372;-62
2024/04/23 06:34:43;;;;;;;2.60;1.23;;;20.90;45.40;;;;;;5433296;26;19999;-62
2024/04/23 06:37:08;;;;;;;2.72;1.17;;;20.90;45.40;;;;;;5433091;26;19999;-62
2024/04/23 06:39:34;;;;;;;2.35;1.33;;;20.90;45.40;;;;;;5432994;26;20000;-62
2024/04/23 06:42:00;;;;;;;2.30;1.30;;;20.90;45.40;;;;;;5435506;26;20456;-62
2024/04/23 06:44:25;;;;;;;1.90;1.00;;;20.90;45.40;;;;;;5434429;26;20002;-62
2024/04/23 06:46:52;;;;;;;1.85;1.20;;;20.90;45.40;;;;;;5433279;26;20076;-62
2024/04/23 06:49:17;;;;;;;3.03;1.30;;;20.90;45.40;;;;;;5434140;26;20007;-62
2024/04/23 06:51:43;;;;;;;4.38;1.38;;;20.90;45.40;;;;;;5431834;26;20515;-63
2024/04/23 06:54:09;;;;;;;2.65;1.45;;;20.90;45.40;;;;;;5431379;26;20046;-62
2024/04/23 06:56:35;;;;;;;3.30;1.25;;;20.90;45.40;;;;;;5426731;26;20011;-62
2024/04/23 06:59:01;;;;;;;2.53;1.27;;;20.90;45.40;;;;;;5423715;26;20000;-62
2024/04/23 07:01:26;;;;;;;2.90;1.40;;;20.90;45.40;;;;;;5426098;26;20010;-63
2024/04/23 07:03:52;;;;;;;2.25;1.20;;;20.90;45.40;;;;;;5426742;26;20007;-60
2024/04/23 07:06:17;;;;;;;4.85;1.70;;;20.90;45.40;;;;;;5430077;26;20048;-61
2024/04/23 07:08:43;;;;;;;3.45;1.92;;;20.90;45.40;;;;;;5432579;26;19991;-60
2024/04/23 07:11:09;;;;;;;2.47;1.30;;;20.90;45.40;;;;;;5428559;26;20426;-61
2024/04/23 07:13:34;;;;;;;2.60;1.35;;;20.90;45.40;;;;;;5430634;26;20007;-61
2024/04/23 07:16:00;;;;;;;2.92;1.50;;;20.80;45.30;;;;;;5430690;26;20352;-61
2024/04/23 07:18:25;;;;;;;2.75;1.38;;;20.90;45.40;;;;;;5428318;26;20011;-60
2024/04/23 07:20:52;;;;;;;3.30;1.40;;;20.90;45.40;;;;;;5426667;26;20451;-60
2024/04/23 07:23:17;;;;;;;3.63;1.50;;;20.80;45.30;;;;;;5430505;26;19999;-60
2024/04/23 07:25:50;;;;;;;2.38;1.25;;;20.90;45.40;;;;;;5428141;26;20014;-61
2024/04/23 07:28:16;;;;;;;2.38;1.48;;;20.80;45.40;;;;;;5431464;26;20003;-60
2024/04/23 07:30:42;;;;;;;2.47;1.20;;;20.80;45.90;;;;;;5426461;26;20003;-61
2024/04/23 07:33:09;;;;;;;2.53;1.33;;;20.80;45.90;;;;;;5425632;26;20044;-62
2024/04/23 07:35:34;;;;;;;3.22;1.70;;;20.80;45.30;;;;;;5432608;26;19999;-63
2024/04/23 07:38:00;;;;;;;3.22;1.40;;;20.80;45.40;;;;;;5432941;26;20342;-62
2024/04/23 07:40:26;;;;;;;4.10;2.00;;;20.80;45.40;;;;;;5427352;26;19996;-63
2024/04/23 07:42:52;;;;;;;3.78;1.50;;;20.80;45.40;;;;;;5426316;26;20007;-62
2024/04/23 07:45:17;;;;;;;2.70;1.48;;;20.80;45.30;;;;;;5431627;26;19995;-62
2024/04/23 07:47:43;;;;;;;3.20;1.52;;;20.80;45.40;;;;;;5426317;26;20007;-63
2024/04/23 07:50:09;;;;;;;3.63;1.52;;;20.80;45.40;;;;;;5428500;26;19999;-62
2024/04/23 07:52:34;;;;;;;2.42;1.50;;;20.80;45.90;;;;;;5428403;26;20495;-62
2024/04/23 07:55:00;;;;;;;2.90;1.30;;;20.80;45.40;;;;;;5426540;26;19995;-62
2024/04/23 07:57:26;;;;;;;4.15;1.55;;;20.80;45.40;;;;;;5430966;26;20010;-62
2024/04/23 07:59:51;;;;;;;3.00;1.58;;;20.80;45.40;;;;;;5428798;26;20003;-62
2024/04/23 08:02:18;;;;;;;3.55;1.40;;;20.80;45.40;;;;;;5426684;26;20070;-62
2024/04/23 08:04:44;;;;;;;2.70;1.40;;;20.80;45.40;;;;;;5428809;26;20010;-62
2024/04/23 08:07:09;;;;;;;4.53;1.48;;;20.80;45.30;;;;;;5430425;26;20457;-62
2024/04/23 08:09:35;;;;;;;3.20;1.60;;;20.80;45.40;;;;;;5429822;26;20070;-62
2024/04/23 08:12:03;;;;;;;3.15;1.55;;;20.80;45.40;;;;;;5429465;26;20073;-62
2024/04/23 08:14:29;;;;;;;3.08;1.50;;;20.80;45.40;;;;;;5431945;26;20343;-60
2024/04/23 08:16:55;;;;;;;2.95;1.50;;;20.80;45.40;;;;;;5426215;26;20047;-61
2024/04/23 08:19:21;;;;;;;2.80;1.48;;;20.80;45.40;;;;;;5431551;26;20003;-61
2024/04/23 08:21:46;;;;;;;2.45;1.50;;;20.80;45.40;;;;;;5428243;26;20393;-61
2024/04/23 08:24:12;;;;;;;3.33;1.50;;;20.80;45.40;;;;;;5427650;26;20072;-61
2024/04/23 08:26:37;;;;;;;3.92;1.65;;;20.80;45.40;;;;;;5430223;26;20375;-60
2024/04/23 08:29:03;;;;;;;4.00;1.77;;;20.80;45.40;;;;;;5431175;26;20013;-61
2024/04/23 08:31:29;;;;;;;3.33;1.58;;;20.80;45.40;;;;;;5427157;26;20070;-61
2024/04/23 08:33:55;;;;;;;4.10;1.80;;;20.80;45.40;;;;;;5423441;26;19996;-62
2024/04/23 08:36:21;;;;;;;2.80;1.40;;;20.80;45.40;;;;;;5427086;26;20399;-62
2024/04/23 08:38:46;;;;;;;4.53;1.73;;;20.80;45.40;;;;;;5430666;26;20122;-62
2024/04/23 08:41:16;;;;;;;3.00;1.50;;;20.80;45.40;;;;;;5429378;26;20019;-62
2024/04/23 08:43:57;;;;;;;2.35;1.33;;;20.80;45.40;;;;;;5430522;26;20409;-60
2024/04/23 08:46:24;;;;;;;3.70;1.60;;;20.80;45.40;;;;;;5429813;26;20003;-59
2024/04/23 08:48:50;;;;;;;3.92;1.50;;;20.80;45.40;;;;;;5423370;26;20010;-60
2024/04/23 08:51:19;;;;;;;3.00;1.42;;;20.80;45.40;;;;;;5429930;26;20099;-60
2024/04/23 08:53:48;;;;;;;3.00;1.58;;;20.80;45.40;;;;;;5430955;26;20068;-60
2024/04/23 08:56:25;;;;;;;3.03;1.57;;;20.80;45.90;;;;;;5428115;26;20018;-60
2024/04/23 08:58:51;;;;;;;2.65;1.42;;;20.80;45.40;;;;;;5427609;26;20018;-61
2024/04/23 09:01:40;;;;;;;3.25;1.55;;;20.80;45.40;;;;;;5425247;26;20300;-61
2024/04/23 09:04:09;;;;;;;2.80;1.67;;;20.70;45.40;;;;;;5422070;26;19999;-60
2024/04/23 09:06:38;;;;;;;3.83;1.50;;;20.70;45.40;;;;;;5431916;26;19999;-60
2024/04/23 09:09:05;;;;;;;2.63;1.30;;;20.80;45.40;;;;;;5428048;26;20464;-61
2024/04/23 09:11:31;;;;;;;2.55;1.38;;;20.70;45.40;;;;;;5432373;26;20011;-60
2024/04/23 09:13:58;;;;;;;2.88;1.60;;;20.70;45.40;;;;;;5429716;26;19996;-60
2024/04/23 09:16:24;;;;;;;2.67;1.42;;;20.70;45.40;;;;;;5425223;26;20343;-60
2024/04/23 09:18:53;;;;;;;3.13;1.60;;;20.70;45.40;;;;;;5425888;26;20079;-60
2024/04/23 09:21:18;;;;;;;2.42;1.25;;;20.70;45.40;;;;;;5431418;26;19996;-60
2024/04/23 09:23:45;;;;;;;1.88;1.25;;;20.70;45.40;;;;;;5432335;26;20071;-60
2024/04/23 09:26:11;;;;;;;3.03;1.50;;;20.70;45.40;;;;;;5428626;26;20003;-60
2024/04/23 09:28:40;;;;;;;2.17;1.40;;;20.70;45.40;;;;;;5420700;26;20451;-60
2024/04/23 09:31:07;;;;;;;2.85;1.50;;;20.70;45.40;;;;;;5426817;26;20469;-61
2024/04/23 09:33:34;;;;;;;2.38;1.33;;;20.70;45.40;;;;;;5425460;26;20164;-60
2024/04/23 09:36:00;;;;;;;2.47;1.50;;;20.70;45.40;;;;;;5427872;26;20436;-60
2024/04/23 09:38:26;;;;;;;3.83;2.00;;;20.70;45.40;;;;;;5427778;26;20087;-61
2024/04/23 09:40:51;;;;;;;3.53;1.55;;;20.70;45.40;;;;;;5426209;26;20007;-61
2024/04/23 09:43:23;;;;;;;2.38;1.30;;;20.70;45.40;;;;;;5426878;26;19995;-62
2024/04/23 09:45:50;;;;;;;3.20;1.60;;;20.70;45.40;;;;;;5427308;26;20011;-62
2024/04/23 09:48:16;;;;;;;3.63;1.60;;;20.70;45.40;;;;;;5424071;26;20066;-62
2024/04/23 09:50:41;;;;;;;3.15;1.50;;;20.70;45.40;;;;;;5427569;26;20358;-62
2024/04/23 09:53:09;;;;;;;2.63;1.40;;;20.70;45.40;;;;;;5425573;26;20028;-62
2024/04/23 09:55:36;;;;;;;2.25;1.30;;;20.70;45.40;;;;;;5428334;26;20342;-62
2024/04/23 09:58:02;;;;;;;3.10;1.40;;;20.70;45.40;;;;;;5434241;26;20476;-62
2024/04/23 10:00:31;;;;;;;2.17;1.30;;;20.70;45.40;;;;;;5427414;26;20010;-62
2024/04/23 10:03:10;;;;;;;2.63;1.33;;;20.70;45.40;;;;;;5422341;26;21082;-62
2024/04/23 10:05:38;;;;;;;2.85;1.40;;;20.70;45.40;;;;;;5427431;26;20013;-63
2024/04/23 10:08:15;;;;;;;2.47;1.50;;;20.70;45.40;;;;;;5428179;26;20015;-63
2024/04/23 10:10:47;;;;;;;2.40;1.30;;;20.70;45.40;;;;;;5427799;26;20003;-62
2024/04/23 10:13:21;;;;;;;2.60;1.30;;;20.70;45.90;;;;;;5425888;26;20447;-62
2024/04/23 10:15:55;;;;;;;2.70;1.40;;;20.70;45.40;;;;;;5424392;26;20450;-62
2024/04/23 10:18:34;;;;;;;2.60;1.23;;;20.70;45.40;;;;;;5425378;26;20010;-62
2024/04/23 10:21:05;;;;;;;3.63;1.52;;;20.70;45.40;;;;;;5426353;26;20038;-62
2024/04/23 10:23:33;;;;;;;2.80;1.45;;;20.70;45.40;;;;;;5427770;26;20444;-62
2024/04/23 10:25:59;;;;;;;2.60;1.33;;;20.70;45.40;;;;;;5428986;26;19998;-62
2024/04/23 10:28:27;;;;;;;3.25;1.52;;;20.70;45.40;;;;;;5426282;26;20086;-62
2024/04/23 10:30:53;;;;;;;2.38;1.30;;;20.70;45.40;;;;;;5430064;26;20014;-62
2024/04/23 10:33:20;;;;;;;2.67;1.40;;;20.70;45.40;;;;;;5425139;26;20006;-61
2024/04/23 10:35:47;;;;;;;2.78;1.52;;;20.70;45.50;;;;;;5426722;26;20027;-61
2024/04/23 10:38:16;;;;;;;2.58;1.27;;;20.60;45.40;;;;;;5431434;26;20080;-60
2024/04/23 10:40:47;;;;;;;3.50;1.57;;;20.70;45.40;;;;;;5432014;26;20424;-61
2024/04/23 10:43:17;;;;;;;2.55;1.50;;;20.70;45.50;;;;;;5430026;26;20015;-60
2024/04/23 10:45:43;;;;;;;2.33;1.50;;;20.70;45.50;;;;;;5432781;26;20003;-59
2024/04/23 10:48:10;;;;;;;2.70;1.50;;;20.70;45.60;;;;;;5429066;26;20003;-60
2024/04/23 10:50:37;;;;;;;3.25;1.98;;;20.60;45.60;;;;;;5427008;26;20071;-60
2024/04/23 10:53:04;;;;;;;2.40;1.30;;;20.60;45.60;;;;;;5427494;26;20011;-63
2024/04/23 10:55:30;;;;;;;3.42;1.50;;;20.60;45.70;;;;;;5430292;26;20017;-63
2024/04/23 10:57:57;;;;;;;2.75;1.25;;;20.60;45.70;;;;;;5434314;26;20474;-63
2024/04/23 11:00:36;;;;;;;1.77;1.10;;;20.60;45.70;;;;;;5430715;26;20003;-63
2024/04/23 11:03:22;;;;;;;2.78;1.63;;;20.60;45.80;;;;;;5429883;26;20339;-62
2024/04/23 11:05:48;;;;;;;2.45;1.40;;;20.60;45.80;;;;;;5422011;26;20006;-62
2024/04/23 11:08:24;;;;;;;2.95;1.48;;;20.60;45.80;;;;;;5431551;26;20315;-63
2024/04/23 11:10:51;;;;;;;2.85;1.40;;;20.60;45.70;;;;;;5428550;26;20076;-62
2024/04/23 11:13:35;;;;;;;3.05;1.35;;;20.60;45.70;;;;;;5433484;26;20007;-63
2024/04/23 11:16:13;;;;;;;2.35;1.23;;;20.60;45.70;;;;;;5433827;26;20311;-63
2024/04/23 11:18:53;;;;;;;2.28;1.23;;;20.60;45.70;;;;;;5421269;26;20003;-63
2024/04/23 11:21:27;;;;;;;2.03;1.20;;;20.60;45.70;;;;;;5442273;26;20014;-63
2024/04/23 11:23:53;;;;;;;2.05;1.30;;;20.60;45.70;;;;;;5428478;26;20081;-62
2024/04/23 11:26:22;;;;;;;2.85;1.50;;;20.60;45.70;;;;;;5430569;26;19999;-62
2024/04/23 11:28:49;;;;;;;2.60;1.40;;;20.70;45.80;;;;;;5429518;26;20038;-62
2024/04/23 11:31:16;;;;;;;2.22;1.30;;;20.60;45.70;;;;;;5428591;26;20011;-62
2024/04/23 11:33:42;;;;;;;2.53;1.40;;;20.60;45.70;;;;;;5422296;26;20011;-63
2024/04/23 11:36:08;;;;;;;3.05;1.40;;;20.60;45.70;;;;;;5428612;26;20037;-62
2024/04/23 11:38:43;;;;;;;2.03;1.25;;;20.60;45.70;;;;;;5430475;26;20004;-63
2024/04/23 11:41:14;;;;;;;2.58;1.33;;;20.60;45.70;;;;;;5429877;26;20088;-63
2024/04/23 11:43:44;;;;;;;2.17;1.15;;;20.60;45.70;;;;;;5427184;26;20008;-60
2024/04/23 11:46:16;;;;;;;3.05;1.30;;;20.60;45.70;;;;;;5428059;26;19995;-61
2024/04/23 11:48:43;;;;;;;2.83;1.63;;;20.60;45.70;;;;;;5425263;26;20000;-60
2024/04/23 11:51:10;;;;;;;2.97;1.27;;;20.70;45.70;;;;;;5430622;26;20467;-60
2024/04/23 11:53:36;;;;;;;2.92;1.35;;;20.60;45.70;;;;;;5429046;26;20463;-60
2024/04/23 11:56:02;;;;;;;3.70;1.60;;;20.70;45.70;;;;;;5427841;26;20014;-60
2024/04/23 11:58:28;;;;;;;2.08;1.27;;;20.60;45.70;;;;;;5429174;26;20016;-60
2024/04/23 12:00:53;;;;;;;3.38;1.60;;;20.70;45.80;;;;;;5443914;26;20014;-60
2024/04/23 12:03:19;;;;;;;2.22;1.35;;;20.70;45.80;;;;;;5428994;26;20346;-62
2024/04/23 12:05:48;;;;;;;2.50;1.40;;;20.70;45.80;;;;;;5429471;26;20003;-62
2024/04/23 12:08:15;;;;;;;2.70;1.30;;;20.60;45.80;;;;;;5432153;26;20470;-62
2024/04/23 12:10:42;;;;;;;2.55;1.40;;;20.70;45.90;;;;;;5431442;26;20428;-63
2024/04/23 12:13:15;;;;;;;1.95;1.20;;;20.70;45.90;;;;;;5428281;26;20453;-63
2024/04/23 12:15:41;;;;;;;5.28;1.80;;;20.70;45.90;;;;;;5429648;26;19995;-62
2024/04/23 12:18:06;;;;;;;2.42;1.25;;;20.70;45.90;;;;;;5432865;26;20005;-62
2024/04/23 12:20:32;;;;;;;2.33;1.25;;;20.70;45.90;;;;;;5425346;26;19999;-62
2024/04/23 12:23:11;;;;;;;2.45;1.27;;;20.70;45.90;;;;;;5425833;26;20447;-62
2024/04/23 12:25:37;;;;;;;2.42;1.30;;;20.70;45.90;;;;;;5427630;26;20010;-63
2024/04/23 12:28:04;;;;;;;4.40;1.85;;;20.70;45.90;;;;;;5429836;26;20006;-62
2024/04/23 12:30:30;;;;;;;2.85;1.30;;;20.70;45.90;;;;;;5428391;26;21095;-62
2024/04/23 12:33:06;;;;;;;2.20;1.10;;;20.70;45.90;;;;;;5426722;26;20031;-62
2024/04/23 12:35:31;;;;;;;2.22;1.25;;;20.70;45.90;;;;;;5426266;26;20066;-62
2024/04/23 12:37:58;;;;;;;2.58;1.40;;;20.70;45.80;;;;;;5426948;26;20011;-62
2024/04/23 12:40:24;;;;;;;2.35;1.27;;;20.70;45.80;;;;;;5429200;26;20166;-62
2024/04/23 12:42:50;;;;;;;2.60;1.40;;;20.70;46.40;;;;;;5427582;26;20415;-63
2024/04/23 12:45:15;;;;;;;2.60;1.75;;;20.70;45.80;;;;;;5430271;26;20010;-62
2024/04/23 12:47:41;;;;;;;1.95;1.30;;;20.70;45.80;;;;;;5427734;26;20007;-62
2024/04/23 12:50:07;;;;;;;2.03;1.30;;;20.70;45.80;;;;;;5423617;26;20011;-62
2024/04/23 12:52:32;;;;;;;2.40;1.40;;;20.70;45.80;;;;;;5426567;26;20007;-62
2024/04/23 12:54:58;;;;;;;2.90;1.48;;;20.70;45.80;;;;;;5426669;26;20485;-61